Time;durP1;ratioP1;P1;durP2;ratioP2;P2;SDS_P1;SDS_P2;PMS_P1;PMS_P2;Temp;Humidity;BMP_temperature;BMP_pressure;BME280_temperature;BME280_humidity;BME280_pressure;Samples;Min_cycle;Max_cycle;Signal;HPM_P1;HPM_P2
2022/06/15 00:01:34;;;;;;;4.07;2.40;;;14.20;99.90;;;-141.84;54.35;19311.88;5031011;28;20230;-58
2022/06/15 00:04:03;;;;;;;4.23;2.60;;;14.10;99.90;;;-141.84;55.23;19295.63;5030495;28;20253;-59
2022/06/15 00:06:38;;;;;;;3.47;2.20;;;14.00;99.90;;;-141.84;55.13;19291.56;5030939;28;20769;-60
2022/06/15 00:09:07;;;;;;;3.78;2.70;;;14.00;99.90;;;-141.84;54.05;19338.28;5031503;28;20191;-61
2022/06/15 00:11:39;;;;;;;3.97;2.83;;;14.00;99.90;;;-141.84;53.96;19360.66;5031223;28;20256;-58
2022/06/15 00:14:11;;;;;;;2.90;2.50;;;14.00;99.90;;;-141.84;54.64;19291.56;5030765;28;20721;-59
2022/06/15 00:16:41;;;;;;;2.90;2.57;;;14.00;99.90;;;-141.84;55.23;19311.88;5030811;28;20311;-58
2022/06/15 00:19:10;;;;;;;3.10;2.53;;;13.90;99.90;;;-141.84;55.14;19307.81;5030934;28;20258;-60
2022/06/15 00:21:38;;;;;;;3.93;2.50;;;13.90;99.90;;;-141.84;55.67;19254.97;5030662;28;20317;-59
2022/06/15 00:24:07;;;;;;;4.93;2.30;;;13.80;99.90;;;-141.84;55.61;19307.81;5030389;28;20210;-60
2022/06/15 00:26:36;;;;;;;3.93;2.50;;;13.80;99.90;;;-141.84;55.33;19281.41;5030362;28;20293;-59
2022/06/15 00:29:04;;;;;;;4.43;2.60;;;13.80;99.90;;;-141.84;55.75;19281.41;5030405;28;20312;-59
2022/06/15 00:31:32;;;;;;;3.13;2.70;;;13.70;99.90;;;-141.84;56.06;19257.00;5030233;28;20225;-58
2022/06/15 00:34:02;;;;;;;3.70;2.60;;;13.70;99.90;;;-141.84;56.64;19261.06;5030143;28;20230;-58
2022/06/15 00:36:31;;;;;;;3.47;2.40;;;13.60;99.90;;;-141.84;56.88;19248.88;5030296;28;20599;-60
2022/06/15 00:39:01;;;;;;;4.60;2.53;;;13.60;99.90;;;-141.84;56.19;19269.22;5030664;28;20212;-59
2022/06/15 00:41:32;;;;;;;4.03;2.40;;;13.50;99.90;;;-141.84;56.10;19248.88;5030476;28;20214;-59
2022/06/15 00:44:23;;;;;;;3.93;2.73;;;13.50;99.90;;;-141.84;56.07;19295.63;5030066;28;20304;-59
2022/06/15 00:46:58;;;;;;;6.20;2.40;;;13.60;99.90;;;-141.84;55.75;19248.88;5030142;28;20760;-59
2022/06/15 00:49:32;;;;;;;3.73;2.43;;;13.70;99.90;;;-141.84;55.68;19254.97;5030519;28;20755;-59
2022/06/15 00:52:05;;;;;;;2.43;2.23;;;13.60;99.90;;;-141.84;56.60;19252.94;5030172;28;20226;-59
2022/06/15 00:54:34;;;;;;;3.07;2.50;;;13.60;99.90;;;-141.84;56.33;19265.13;5029859;28;20741;-59
2022/06/15 00:57:04;;;;;;;4.53;2.30;;;13.60;99.90;;;-141.84;56.57;19257.00;5029632;28;20720;-59
2022/06/15 00:59:36;;;;;;;4.00;2.57;;;13.60;99.90;;;-141.84;56.41;19281.41;5031097;28;20191;-59
2022/06/15 01:02:06;;;;;;;4.10;2.33;;;13.50;99.90;;;-141.84;56.87;19224.50;5029960;28;20333;-59
2022/06/15 01:04:43;;;;;;;2.67;2.20;;;13.50;99.90;;;-141.84;57.06;19269.22;5029825;28;20300;-59
2022/06/15 01:07:33;;;;;;;2.70;2.30;;;13.50;99.90;;;-141.84;57.07;19250.91;5029898;28;20742;-59
2022/06/15 01:10:12;;;;;;;3.77;2.50;;;13.50;99.90;;;-141.84;56.99;19257.00;5029928;28;20226;-60
2022/06/15 01:12:55;;;;;;;3.27;2.27;;;13.40;99.90;;;-141.84;57.31;19218.41;5029649;28;20221;-59
2022/06/15 01:15:40;;;;;;;4.07;2.47;;;13.40;99.90;;;-141.84;57.49;19214.34;5028961;28;21054;-60
2022/06/15 01:18:29;;;;;;;4.93;2.63;;;13.30;99.90;;;-141.84;57.74;19224.50;5029595;28;20229;-58
2022/06/15 01:21:13;;;;;;;2.93;2.60;;;13.30;99.90;;;-141.84;58.00;19196.06;5030715;28;20285;-60
2022/06/15 01:24:16;;;;;;;3.80;2.47;;;13.30;99.90;;;-141.84;57.99;19224.50;5030129;28;20201;-61
2022/06/15 01:27:31;;;;;;;4.00;2.63;;;13.30;99.90;;;-141.84;58.22;19171.66;5029665;28;20210;-59
2022/06/15 01:30:39;;;;;;;3.33;2.50;;;13.30;99.90;;;-141.84;58.39;19208.25;5030275;28;20257;-58
2022/06/15 01:33:27;;;;;;;3.53;2.33;;;13.20;99.90;;;-141.84;58.08;19216.38;5028560;28;20293;-58
2022/06/15 01:36:09;;;;;;;3.40;2.80;;;13.30;99.90;;;-141.84;58.94;19185.88;5010496;28;20191;-59
2022/06/15 01:38:52;;;;;;;2.83;2.53;;;13.20;99.90;;;-141.84;58.86;19157.44;5010421;28;20231;-58
2022/06/15 01:41:32;;;;;;;5.00;2.67;;;13.10;99.90;;;-141.84;59.03;19206.22;5009632;28;20316;-59
2022/06/15 01:44:13;;;;;;;4.13;2.60;;;13.10;99.90;;;-141.84;59.46;19204.19;5009934;28;20313;-60
2022/06/15 01:46:47;;;;;;;4.33;2.40;;;13.10;99.90;;;-141.84;58.82;19189.97;5009789;28;20622;-60
2022/06/15 01:49:21;;;;;;;5.20;2.70;;;13.10;99.90;;;-141.84;59.29;19183.84;5009930;28;20245;-59
2022/06/15 01:51:53;;;;;;;3.40;2.40;;;13.10;99.90;;;-141.84;59.78;19171.66;5009511;28;20222;-59
2022/06/15 01:54:28;;;;;;;5.60;2.80;;;13.00;99.90;;;-141.84;59.60;19155.41;5014020;28;20226;-59
2022/06/15 01:56:59;;;;;;;4.47;2.53;;;13.00;99.90;;;-141.84;60.10;19153.38;5010138;28;20281;-60
2022/06/15 01:59:36;;;;;;;3.97;2.60;;;13.00;99.90;;;-141.84;59.87;19165.56;5010302;28;20303;-59
2022/06/15 02:02:18;;;;;;;3.83;2.77;;;13.00;99.90;;;-141.84;60.21;19151.34;5009503;28;20244;-59
2022/06/15 02:05:01;;;;;;;4.90;3.03;;;12.90;99.90;;;-141.84;60.16;19165.56;5009614;28;20717;-60
2022/06/15 02:07:39;;;;;;;3.70;2.67;;;12.90;99.90;;;-141.84;60.58;19159.47;5009211;28;20226;-60
2022/06/15 02:10:18;;;;;;;3.60;2.67;;;12.90;99.90;;;-141.84;60.86;19151.34;5009646;28;20593;-59
2022/06/15 02:12:57;;;;;;;3.30;2.73;;;12.90;99.90;;;-141.84;60.45;19122.91;5009162;28;20253;-60
2022/06/15 02:15:29;;;;;;;4.87;2.83;;;12.90;99.90;;;-141.84;60.55;19145.25;5009251;28;20301;-59
2022/06/15 02:18:05;;;;;;;2.93;2.60;;;12.90;99.90;;;-141.84;61.13;19147.28;5009833;28;20277;-59
2022/06/15 02:20:40;;;;;;;3.97;3.30;;;12.80;99.90;;;-141.84;61.30;19094.44;5029283;28;20210;-59
2022/06/15 02:23:12;;;;;;;3.10;2.50;;;12.80;99.90;;;-141.84;61.15;19106.66;5028953;28;20217;-59
2022/06/15 02:25:45;;;;;;;2.90;2.37;;;12.80;99.90;;;-141.84;61.61;19126.97;5028561;28;20222;-59
2022/06/15 02:28:15;;;;;;;3.03;2.50;;;12.80;99.90;;;-141.84;61.55;19098.50;5031201;28;20312;-60
2022/06/15 02:30:44;;;;;;;5.67;3.10;;;12.80;99.90;;;-141.84;61.15;19116.81;5032810;28;20288;-60
2022/06/15 02:33:25;;;;;;;4.43;3.00;;;12.80;99.90;;;-141.84;61.41;19159.47;5032295;28;20705;-58
2022/06/15 02:35:54;;;;;;;6.20;3.10;;;12.90;99.90;;;-141.84;62.23;19137.13;5032901;28;20210;-60
2022/06/15 02:38:22;;;;;;;4.00;2.87;;;12.80;99.90;;;-141.84;62.15;19102.56;5032303;28;20230;-60
2022/06/15 02:40:51;;;;;;;4.53;2.90;;;12.80;99.90;;;-141.84;62.19;19139.16;5032467;28;20222;-60
2022/06/15 02:43:28;;;;;;;4.83;2.67;;;12.80;99.90;;;-141.84;61.93;19135.09;5032274;28;20320;-60
2022/06/15 02:46:02;;;;;;;4.10;2.77;;;12.80;99.90;;;-141.84;61.55;19151.34;5032401;28;20226;-59
2022/06/15 02:48:37;;;;;;;6.73;2.87;;;12.80;99.90;;;-141.84;61.94;19147.28;5032352;28;20221;-58
2022/06/15 02:51:13;;;;;;;4.40;3.40;;;12.90;99.90;;;-141.84;62.60;19102.56;5032476;28;20285;-60
2022/06/15 02:53:43;;;;;;;4.67;3.10;;;12.80;99.90;;;-141.84;63.49;19066.00;5032540;28;20186;-59
2022/06/15 02:56:15;;;;;;;4.50;3.00;;;12.80;99.90;;;-141.84;63.32;19078.19;5031379;28;20728;-59
2022/06/15 02:58:47;;;;;;;6.27;3.07;;;12.70;99.90;;;-141.84;63.59;19112.75;5031765;28;20226;-59
2022/06/15 03:01:17;;;;;;;5.90;3.40;;;12.70;99.90;;;-141.84;63.32;19098.50;5032009;28;20316;-59
2022/06/15 03:03:48;;;;;;;3.67;3.33;;;12.70;99.90;;;-141.84;63.68;19059.91;5031635;28;20226;-59
2022/06/15 03:06:19;;;;;;;3.83;2.97;;;12.70;99.90;;;-141.84;64.22;19070.06;5031803;28;20657;-60
2022/06/15 03:08:48;;;;;;;5.40;2.87;;;12.70;99.90;;;-141.84;64.51;19070.06;5032274;28;20286;-59
2022/06/15 03:11:16;;;;;;;5.60;3.13;;;12.60;99.90;;;-141.84;64.23;19045.69;5031627;28;20222;-60
2022/06/15 03:13:44;;;;;;;6.00;2.90;;;12.60;99.90;;;-141.84;64.51;19074.13;5031320;28;20225;-60
2022/06/15 03:16:12;;;;;;;4.30;3.30;;;12.70;99.90;;;-141.84;64.68;19074.13;5031575;28;20233;-59
2022/06/15 03:18:40;;;;;;;4.13;3.17;;;12.60;99.90;;;-141.84;64.62;19057.88;5031314;28;20250;-59
2022/06/15 03:21:10;;;;;;;5.53;3.20;;;12.60;99.90;;;-141.84;64.35;19090.38;5031610;28;20209;-59
2022/06/15 03:23:38;;;;;;;3.93;3.53;;;12.60;99.90;;;-141.84;65.00;19009.09;5031936;28;20208;-60
2022/06/15 03:26:07;;;;;;;6.93;2.80;;;12.60;99.90;;;-141.84;64.51;19072.09;5031097;28;20633;-59
2022/06/15 03:28:35;;;;;;;3.80;3.30;;;12.60;99.90;;;-141.84;64.29;19078.19;5031163;28;20599;-59
2022/06/15 03:31:04;;;;;;;6.37;3.10;;;12.60;99.90;;;-141.84;63.76;19074.13;5031597;28;20226;-59
2022/06/15 03:33:32;;;;;;;4.33;3.00;;;12.60;99.90;;;-141.84;64.68;19041.63;5031189;28;20308;-59
2022/06/15 03:36:01;;;;;;;8.80;3.47;;;12.60;99.90;;;-141.84;65.34;19057.88;5031478;28;20261;-59
2022/06/15 03:38:31;;;;;;;4.80;3.30;;;12.50;99.90;;;-141.84;65.00;19059.91;5030845;28;20592;-59
2022/06/15 03:40:59;;;;;;;5.00;3.13;;;12.50;99.90;;;-141.84;64.96;19053.81;5030800;28;20226;-60
2022/06/15 03:43:28;;;;;;;5.87;3.50;;;12.60;99.90;;;-141.84;64.69;19045.69;5031089;28;20221;-60
2022/06/15 03:45:56;;;;;;;4.83;3.23;;;12.60;99.90;;;-141.84;64.74;19049.75;5031068;28;20230;-59
2022/06/15 03:48:25;;;;;;;7.53;4.10;;;12.60;99.90;;;-141.84;64.46;19074.13;5030942;28;20233;-58
2022/06/15 03:50:53;;;;;;;4.67;3.23;;;12.70;99.90;;;-141.84;64.95;19047.72;5031678;28;20571;-61
2022/06/15 03:53:21;;;;;;;7.60;3.60;;;12.70;99.90;;;-141.84;64.38;19084.28;5030764;28;20592;-59
2022/06/15 03:55:50;;;;;;;4.93;3.33;;;12.80;99.90;;;-141.84;64.41;19070.06;5030390;28;20317;-60
2022/06/15 03:58:20;;;;;;;4.20;3.47;;;12.80;99.90;;;-141.84;64.35;19043.66;5030259;28;20236;-59
2022/06/15 04:00:50;;;;;;;5.17;3.40;;;12.90;99.90;;;-141.84;64.76;19074.13;5031232;28;20226;-59
2022/06/15 04:03:18;;;;;;;5.10;3.33;;;12.90;99.90;;;-141.84;64.40;19096.47;5030629;28;20309;-60
2022/06/15 04:05:53;;;;;;;4.07;3.20;;;13.00;99.90;;;-141.84;64.43;19090.38;5031249;28;20202;-60
2022/06/15 04:08:39;;;;;;;4.50;3.23;;;13.00;99.90;;;-141.84;64.06;19096.47;5030243;28;20235;-60
2022/06/15 04:11:58;;;;;;;5.22;3.40;;;13.10;99.90;;;-141.84;63.66;19104.59;5030322;28;20234;-59
2022/06/15 04:14:00;;;;;;;5.10;3.37;;;13.20;99.90;;;-141.84;63.45;19139.16;5030051;28;20230;-59
2022/06/15 04:16:28;;;;;;;3.43;3.13;;;13.20;99.90;;;-141.84;63.09;19120.88;5030334;28;20225;-60
2022/06/15 04:19:02;;;;;;;3.87;3.50;;;13.30;99.90;;;-141.84;62.84;19116.81;5030157;28;20238;-60
2022/06/15 04:21:30;;;;;;;5.70;4.00;;;13.40;99.90;;;-141.84;62.22;19143.22;5030840;28;20308;-60
2022/06/15 04:23:58;;;;;;;5.37;3.37;;;13.50;99.90;;;-141.84;61.88;19145.25;5030218;28;20210;-60
2022/06/15 04:26:28;;;;;;;4.03;3.63;;;13.60;99.90;;;-141.84;62.56;19131.03;5030669;28;20305;-58
2022/06/15 04:28:56;;;;;;;4.03;3.33;;;13.70;99.90;;;-141.84;61.88;19192.00;5029967;28;20312;-60
2022/06/15 04:31:25;;;;;;;5.03;3.50;;;13.80;99.90;;;-141.84;61.24;19181.81;5030501;28;20329;-60
2022/06/15 04:33:53;;;;;;;4.73;3.57;;;13.90;99.90;;;-141.84;60.12;19212.31;5029961;28;20225;-60
2022/06/15 04:36:24;;;;;;;4.30;3.90;;;14.10;99.90;;;-141.84;59.78;19226.53;5030109;28;20236;-61
2022/06/15 04:38:52;;;;;;;5.27;3.93;;;14.20;99.90;;;-141.84;59.22;19250.91;5030359;28;20664;-59
2022/06/15 04:41:26;;;;;;;4.90;3.40;;;14.40;99.90;;;-141.84;58.92;19226.53;5010510;28;20222;-60
2022/06/15 04:43:54;;;;;;;4.25;3.53;;;14.40;99.90;;;-141.84;58.58;19263.09;5025896;28;20673;-60
2022/06/15 04:46:23;;;;;;;4.43;3.60;;;14.50;99.90;;;-141.84;57.88;19267.16;5029862;28;20660;-60
2022/06/15 04:48:51;;;;;;;4.33;3.60;;;14.60;99.90;;;-141.84;56.87;19344.41;5029734;28;20229;-59
2022/06/15 04:51:24;;;;;;;8.40;3.88;;;14.90;99.90;;;-141.84;52.77;19533.38;5029938;28;20297;-60
2022/06/15 04:53:55;;;;;;;5.60;3.08;;;15.80;99.90;;;-141.84;47.01;19866.69;5030257;28;20673;-62
2022/06/15 04:56:25;;;;;;;5.18;2.90;;;17.20;99.90;;;-141.84;41.55;20216.25;5009794;28;20317;-59
2022/06/15 04:58:55;;;;;;;3.95;2.97;;;18.90;99.90;;;-141.84;38.80;20419.53;5009776;28;20311;-60
2022/06/15 05:01:23;;;;;;;4.90;2.85;;;20.10;99.90;;;-141.84;36.29;20669.56;5010310;28;20313;-59
2022/06/15 05:03:51;;;;;;;5.65;3.35;;;;;;;-141.84;34.22;20893.16;5009738;28;20214;-59
2022/06/15 05:06:32;;;;;;;4.78;2.70;;;;;;;-141.84;32.90;21100.53;5010038;28;20234;-59
2022/06/15 05:09:01;;;;;;;3.22;2.90;;;;;;;-141.84;31.95;21169.66;5009864;28;20283;-59
2022/06/15 05:11:29;;;;;;;3.65;2.90;;;;;;;-141.84;31.28;21265.22;5010388;28;20289;-60
2022/06/15 05:13:59;;;;;;;4.65;2.80;;;;;;;-141.84;31.35;21277.41;5009660;28;20317;-59
2022/06/15 05:16:28;;;;;;;3.35;2.58;;;;;;;-141.84;30.38;21431.94;5009680;28;20234;-59
2022/06/15 05:18:57;;;;;;;3.28;2.53;;;;;;;-141.84;31.39;21314.00;5009462;28;20313;-59
2022/06/15 05:21:27;;;;;;;3.65;3.10;;;;;;;-141.84;30.65;21324.19;5006362;28;20247;-60
2022/06/15 05:23:55;;;;;;;6.75;3.53;;;;;;;-141.84;30.21;21415.66;4993783;28;20218;-60
2022/06/15 05:26:25;;;;;;;4.40;3.20;;;;;;;-141.84;29.27;21598.66;5029665;28;20297;-60
2022/06/15 05:28:54;;;;;;;4.43;2.90;;;;;;;-141.84;29.65;21555.97;5029438;28;20316;-59
2022/06/15 05:31:24;;;;;;;4.45;3.20;;;;;;;-141.84;29.63;21505.13;5029838;28;20236;-60
2022/06/15 05:33:54;;;;;;;4.93;3.10;;;;;;;-141.84;29.89;21466.50;5029008;28;20240;-60
2022/06/15 05:36:26;;;;;;;4.22;3.05;;;;;;;-141.84;30.53;21362.81;5029534;28;20248;-59
2022/06/15 05:38:55;;;;;;;3.58;3.28;;;;;;;-141.84;30.61;21305.88;5029781;28;20193;-60
2022/06/15 05:41:23;;;;;;;4.40;3.45;;;;;;;-141.84;33.14;20982.63;5009500;28;20237;-59
2022/06/15 05:43:59;;;;;;;4.88;3.67;;;;;;;-141.84;33.63;20756.97;5009612;28;20260;-58
2022/06/15 05:46:32;;;;;;;3.95;3.65;;;22.60;99.90;;;-141.84;36.64;20580.13;5009694;28;20321;-59
2022/06/15 05:49:02;;;;;;;5.35;3.63;;;;;;;-141.84;37.50;20443.91;5010316;28;20226;-60
2022/06/15 05:51:31;;;;;;;6.38;4.22;;;21.50;99.90;;;-141.84;39.47;20289.44;5010801;28;20661;-60
2022/06/15 05:53:59;;;;;;;4.15;3.75;;;20.70;99.90;;;-141.84;39.93;20218.31;5010112;28;20249;-60
2022/06/15 05:56:28;;;;;;;8.00;3.92;;;20.40;99.90;;;-141.84;41.27;20173.59;5010381;28;20202;-59
2022/06/15 05:58:56;;;;;;;4.25;3.70;;;20.10;99.90;;;-141.84;41.43;20147.16;5009948;28;20226;-60
2022/06/15 06:01:30;;;;;;;3.70;3.35;;;20.10;99.90;;;-141.84;41.14;20114.63;5021855;28;20677;-60
2022/06/15 06:03:59;;;;;;;4.82;3.67;;;20.00;99.90;;;-141.84;41.49;20094.31;5033610;28;20759;-59
2022/06/15 06:06:29;;;;;;;5.50;3.30;;;19.90;99.90;;;-141.84;41.70;20065.84;5033672;28;20442;-59
2022/06/15 06:08:59;;;;;;;4.00;3.53;;;19.90;99.90;;;-141.84;41.89;20071.97;5033971;28;20187;-59
2022/06/15 06:11:29;;;;;;;4.97;3.70;;;19.70;99.90;;;-141.84;42.71;20049.59;5033599;28;20292;-60
2022/06/15 06:13:58;;;;;;;5.72;3.53;;;19.40;99.90;;;-141.84;42.34;20041.47;5033407;28;20252;-60
2022/06/15 06:16:27;;;;;;;3.72;3.42;;;19.30;99.90;;;-141.84;41.92;20078.06;5033253;28;20222;-60
2022/06/15 06:18:56;;;;;;;4.97;3.63;;;19.50;99.90;;;-141.84;42.62;20045.53;5033397;28;20258;-59
2022/06/15 06:21:25;;;;;;;5.65;3.53;;;19.80;99.90;;;-141.84;42.97;20061.78;5033099;28;20229;-59
2022/06/15 06:23:53;;;;;;;4.28;3.40;;;19.70;99.90;;;-141.84;41.96;20098.38;5033991;28;20776;-59
2022/06/15 06:26:25;;;;;;;4.22;3.72;;;20.00;99.90;;;-141.84;42.60;20098.38;5032681;28;20225;-59
2022/06/15 06:28:56;;;;;;;4.53;3.30;;;19.90;99.90;;;-141.84;42.35;20098.38;5033159;28;20299;-60
2022/06/15 06:31:25;;;;;;;6.78;3.75;;;20.00;99.90;;;-141.84;42.71;20065.84;5032996;28;20252;-59
2022/06/15 06:33:55;;;;;;;3.78;3.17;;;19.90;99.90;;;-141.84;42.30;20082.13;5033577;28;20237;-59
2022/06/15 06:36:30;;;;;;;6.45;3.38;;;20.00;99.90;;;-141.84;42.53;20078.06;5032952;28;20228;-60
2022/06/15 06:39:00;;;;;;;4.97;3.22;;;20.10;99.90;;;-141.84;42.20;20092.28;5033242;28;20347;-58
2022/06/15 06:41:31;;;;;;;5.45;3.60;;;20.00;99.90;;;-141.84;41.96;20116.66;5033359;28;20226;-60
2022/06/15 06:44:04;;;;;;;6.50;4.15;;;20.20;99.90;;;-141.84;41.51;20137.00;5033405;28;20757;-59
2022/06/15 06:46:34;;;;;;;4.60;3.47;;;20.10;99.90;;;-141.84;41.21;20139.03;5033546;28;20287;-59
2022/06/15 06:49:06;;;;;;;5.07;3.50;;;20.20;99.90;;;-141.84;41.50;20159.34;5033484;28;20611;-59
2022/06/15 06:51:35;;;;;;;3.90;3.38;;;20.30;99.90;;;-141.84;41.46;20149.19;5033182;28;20217;-61
2022/06/15 06:54:04;;;;;;;8.70;4.15;;;20.40;99.90;;;-141.84;41.07;20114.63;5033418;28;20611;-60
2022/06/15 06:56:34;;;;;;;4.47;3.45;;;20.20;99.90;;;-141.84;41.52;20153.25;5033013;28;20245;-60
2022/06/15 06:59:02;;;;;;;3.58;3.28;;;20.40;99.90;;;-141.84;41.46;20165.44;5032743;28;20253;-58
2022/06/15 07:01:31;;;;;;;6.60;3.88;;;20.40;99.90;;;-141.84;41.29;20197.97;5032647;28;20401;-59
2022/06/15 07:03:59;;;;;;;5.35;3.05;;;20.40;99.90;;;-141.84;42.54;20141.06;5033122;28;20324;-60
2022/06/15 07:06:29;;;;;;;4.38;3.67;;;20.60;99.90;;;-141.84;40.85;20191.88;5031824;28;20218;-59
2022/06/15 07:08:57;;;;;;;5.18;3.40;;;20.70;99.90;;;-141.84;41.08;20195.94;5032950;28;20198;-63
2022/06/15 07:11:26;;;;;;;5.10;3.10;;;20.80;99.90;;;-141.84;40.84;20212.19;5032162;28;20293;-59
2022/06/15 07:13:54;;;;;;;6.70;3.25;;;20.70;99.90;;;-141.84;40.74;20171.56;5031243;28;20230;-60
2022/06/15 07:16:23;;;;;;;5.68;3.75;;;20.70;99.90;;;-141.84;40.74;20220.34;5032460;28;20229;-59
2022/06/15 07:18:53;;;;;;;4.90;3.75;;;20.70;99.90;;;-141.84;40.71;20163.41;5018655;28;20230;-59
2022/06/15 07:21:24;;;;;;;6.05;3.38;;;20.60;99.90;;;-141.84;40.77;20220.34;5012422;28;20235;-59
2022/06/15 07:23:57;;;;;;;4.88;3.60;;;20.60;99.90;;;-141.84;41.45;20143.09;5016971;28;20497;-59
2022/06/15 07:26:29;;;;;;;3.67;3.30;;;20.40;99.90;;;-141.84;41.18;20159.34;5031840;28;20249;-58
2022/06/15 07:28:57;;;;;;;4.10;3.33;;;20.30;99.90;;;-141.84;41.56;20141.06;5032114;28;20254;-58
2022/06/15 07:31:30;;;;;;;3.60;3.20;;;20.30;99.90;;;-141.84;41.65;20128.88;5031878;28;20232;-56
2022/06/15 07:33:59;;;;;;;5.22;3.33;;;20.40;99.90;;;-141.84;41.27;20147.16;5032536;28;20222;-55
2022/06/15 07:36:34;;;;;;;5.97;3.30;;;20.50;99.90;;;-141.84;40.62;20204.06;5031958;28;20271;-60
2022/06/15 07:39:06;;;;;;;4.65;3.13;;;20.70;99.90;;;-141.84;40.98;20173.59;5032030;28;20202;-58
2022/06/15 07:41:35;;;;;;;5.15;2.90;;;20.70;99.90;;;-141.84;40.19;20191.88;5031746;28;20230;-58
2022/06/15 07:44:04;;;;;;;7.90;3.00;;;20.70;99.90;;;-141.84;40.75;20177.66;5031753;28;20276;-58
2022/06/15 07:46:33;;;;;;;5.32;3.25;;;20.70;99.90;;;-141.84;41.20;20167.47;5031625;28;20313;-59
2022/06/15 07:51:53;;;;;;;2.97;2.67;;;20.70;99.90;;;-141.84;40.88;20204.06;5031645;28;20305;-58
2022/06/15 07:54:24;;;;;;;4.65;2.65;;;20.70;99.90;;;-141.84;40.86;20173.59;5032265;28;20229;-59
2022/06/15 07:56:55;;;;;;;4.10;2.80;;;20.70;99.90;;;-141.84;41.20;20193.91;5031538;28;20297;-59
2022/06/15 07:59:24;;;;;;;5.40;2.80;;;20.70;99.90;;;-141.84;40.94;20208.13;5031533;28;20647;-58
2022/06/15 08:01:53;;;;;;;5.63;3.15;;;20.80;99.90;;;-141.84;40.82;20187.81;5031221;28;20328;-58
2022/06/15 08:04:21;;;;;;;4.95;3.17;;;20.70;99.90;;;-141.84;40.67;20210.16;5031864;28;20230;-60
2022/06/15 08:06:51;;;;;;;4.47;3.35;;;20.70;99.90;;;-141.84;40.02;20252.84;5031339;28;20230;-59
2022/06/15 08:09:19;;;;;;;6.50;3.30;;;20.80;99.90;;;-141.84;41.00;20171.56;5031161;28;20225;-60
2022/06/15 08:14:39;;;;;;;4.93;3.20;;;20.60;99.90;;;-141.84;40.88;20163.41;5012213;28;20693;-59
2022/06/15 08:17:12;;;;;;;6.00;3.00;;;20.60;99.90;;;-141.84;41.23;20181.72;5028922;28;20232;-60
2022/06/15 08:19:47;;;;;;;4.28;2.90;;;20.50;99.90;;;-141.84;41.22;20173.59;5011424;28;20253;-59
2022/06/15 08:22:16;;;;;;;4.78;3.15;;;20.60;99.90;;;-141.84;39.73;20254.88;5011182;28;20559;-59
2022/06/15 08:24:46;;;;;;;4.50;2.80;;;20.70;99.90;;;-141.84;40.02;20248.78;5021496;28;20244;-59
2022/06/15 08:27:20;;;;;;;5.00;3.28;;;20.70;99.90;;;-141.84;40.63;20212.19;5030755;28;20189;-57
2022/06/15 08:29:51;;;;;;;2.92;2.72;;;20.70;99.90;;;-141.84;40.59;20208.13;5031748;28;20182;-59
2022/06/15 08:32:20;;;;;;;3.03;2.58;;;20.80;99.90;;;-141.84;40.02;20234.56;5030758;28;20232;-59
2022/06/15 08:34:49;;;;;;;3.83;2.75;;;20.90;99.90;;;-141.84;39.69;20256.91;5030918;28;20228;-60
2022/06/15 08:37:20;;;;;;;5.05;2.70;;;20.90;99.90;;;-141.84;39.47;20222.38;5030355;28;20261;-60
2022/06/15 08:39:48;;;;;;;3.38;2.72;;;21.00;99.90;;;-141.84;39.89;20252.84;5030902;28;20222;-60
2022/06/15 08:42:31;;;;;;;5.13;3.00;;;21.00;99.90;;;-141.84;39.51;20265.03;5029959;28;20375;-60
2022/06/15 08:45:11;;;;;;;3.35;2.60;;;21.00;99.90;;;-141.84;38.87;20275.22;5031141;28;20198;-60
2022/06/15 08:48:06;;;;;;;3.78;2.75;;;21.10;99.90;;;-141.84;38.47;20370.75;5031080;28;20206;-59
2022/06/15 08:50:41;;;;;;;3.17;2.22;;;21.30;99.90;;;-141.84;38.96;20338.22;5030911;28;20210;-60
2022/06/15 08:53:17;;;;;;;3.35;2.10;;;21.30;99.90;;;-141.84;38.96;20285.38;5030631;28;20229;-58
2022/06/15 08:55:52;;;;;;;4.30;2.30;;;21.40;99.90;;;-141.84;39.16;20348.38;5030370;28;20229;-59
2022/06/15 08:58:34;;;;;;;3.55;2.13;;;21.40;99.90;;;-141.84;38.19;20330.09;5030330;28;20316;-60
2022/06/15 09:01:10;;;;;;;4.63;2.33;;;21.40;99.90;;;-141.84;37.03;20389.03;5030123;28;20607;-59
2022/06/15 09:03:49;;;;;;;4.00;2.20;;;21.50;99.90;;;-141.84;37.33;20409.38;5030582;28;20275;-59
2022/06/15 09:06:34;;;;;;;3.13;2.47;;;21.50;99.90;;;-141.84;36.75;20423.59;5029711;28;20269;-58
2022/06/15 09:09:30;;;;;;;2.42;2.00;;;21.60;99.90;;;-141.84;36.85;20454.09;5030389;28;20194;-56
2022/06/15 09:15:18;;;;;;;4.00;2.17;;;21.70;99.90;;;-141.84;36.72;20427.66;5030793;28;20206;-57
2022/06/15 09:17:51;;;;;;;2.75;2.20;;;21.70;99.90;;;-141.84;36.25;20480.50;5030609;28;20214;-59
2022/06/15 09:20:26;;;;;;;6.72;2.45;;;21.70;99.90;;;-141.84;35.55;20498.81;5030309;28;20252;-58
2022/06/15 09:23:02;;;;;;;2.58;1.90;;;21.70;99.90;;;-141.84;35.48;20488.63;5030016;28;20229;-58
2022/06/15 09:25:40;;;;;;;3.20;1.98;;;21.70;99.90;;;-141.84;35.69;20452.06;5030294;28;20238;-60
2022/06/15 09:28:15;;;;;;;3.90;2.25;;;21.80;99.90;;;-141.84;35.74;20496.78;5029623;28;20761;-60
2022/06/15 09:30:45;;;;;;;4.10;2.25;;;21.90;99.90;;;-141.84;35.43;20529.28;5030054;28;20232;-61
2022/06/15 09:33:21;;;;;;;2.45;2.20;;;22.00;99.90;;;-141.84;35.42;20498.81;5030259;28;20197;-60
2022/06/15 09:36:00;;;;;;;4.18;2.30;;;22.00;99.90;;;-141.84;35.39;20539.47;5030650;28;20212;-61
2022/06/15 09:38:30;;;;;;;2.30;2.10;;;22.10;99.90;;;-141.84;35.48;20521.16;5033734;28;20206;-59
2022/06/15 09:41:09;;;;;;;4.35;2.13;;;22.10;99.90;;;-141.84;35.10;20533.34;5033949;28;20237;-60
2022/06/15 09:43:47;;;;;;;2.70;1.88;;;22.20;99.90;;;-141.84;34.34;20584.19;5034240;28;20263;-61
2022/06/15 09:46:26;;;;;;;3.25;2.22;;;22.40;99.90;;;-141.84;34.60;20604.50;5034230;28;20229;-59
2022/06/15 09:49:12;;;;;;;1.73;1.63;;;22.40;99.90;;;-141.84;33.47;20628.91;5034038;28;20805;-59
2022/06/15 09:51:58;;;;;;;2.20;2.00;;;22.50;99.90;;;-141.84;33.88;20635.00;5034252;28;20249;-59
2022/06/15 09:54:44;;;;;;;4.82;2.10;;;22.60;99.90;;;-141.84;33.84;20608.56;5034215;28;20339;-59
2022/06/15 09:57:13;;;;;;;2.42;2.08;;;22.70;99.90;;;-141.84;33.74;20647.19;5033768;28;20652;-62
2022/06/15 09:59:42;;;;;;;2.25;1.80;;;22.70;99.90;;;-141.84;33.90;20661.44;5034452;28;20895;-59
2022/06/15 10:02:22;;;;;;;3.55;2.10;;;22.80;99.90;;;-141.84;33.31;20689.88;5033776;28;20724;-59
2022/06/15 10:04:52;;;;;;;2.53;2.03;;;22.80;99.90;;;-141.84;33.50;20700.03;5014576;28;20284;-60
2022/06/15 10:07:29;;;;;;;3.65;2.20;;;23.00;99.90;;;-141.84;33.89;20720.38;5013737;28;20234;-61
2022/06/15 10:10:14;;;;;;;2.95;2.08;;;23.00;99.90;;;-141.84;33.28;20714.28;5014003;28;20236;-59
2022/06/15 10:13:01;;;;;;;3.22;1.98;;;23.10;99.90;;;-141.84;33.58;20732.56;5013374;28;20222;-60
2022/06/15 10:15:52;;;;;;;4.18;2.30;;;23.10;99.90;;;-141.84;33.98;20659.38;5013883;28;20226;-59
2022/06/15 10:18:33;;;;;;;2.63;2.15;;;23.00;99.90;;;-141.84;33.56;20724.44;5013866;28;20238;-60
2022/06/15 10:21:10;;;;;;;5.43;2.60;;;23.20;99.90;;;-141.84;33.93;20726.47;5013749;28;20746;-59
2022/06/15 10:24:02;;;;;;;3.33;2.20;;;23.10;99.90;;;-141.84;34.22;20704.13;5033822;28;20210;-60
2022/06/15 10:26:40;;;;;;;2.92;2.20;;;23.20;99.90;;;-141.84;33.75;20698.00;5033322;28;20250;-62
2022/06/15 10:29:30;;;;;;;2.53;2.00;;;23.20;99.90;;;-141.84;34.46;20687.84;5033296;28;20230;-59
2022/06/15 10:32:17;;;;;;;3.05;2.03;;;23.30;99.90;;;-141.84;34.00;20736.63;5033037;28;20714;-58
2022/06/15 10:35:04;;;;;;;4.40;2.47;;;23.30;99.90;;;-141.84;34.07;20716.31;5033390;28;20234;-61
2022/06/15 10:37:36;;;;;;;2.58;1.95;;;23.40;99.90;;;-141.84;33.86;20797.63;5032840;28;20222;-60
2022/06/15 10:40:20;;;;;;;2.97;2.10;;;23.60;99.90;;;-141.84;33.65;20787.47;5032866;28;20214;-59
2022/06/15 10:42:53;;;;;;;2.83;2.20;;;23.60;99.90;;;-141.84;33.67;20795.59;5032361;28;20229;-64
2022/06/15 10:45:27;;;;;;;3.13;2.28;;;23.60;99.90;;;-141.84;33.79;20771.19;5032817;28;20221;-58